createdAt,value
2023-01-29T00:01:40.348Z,49.53
2023-01-29T00:06:43.159Z,49.78
2023-01-29T00:11:45.580Z,49.80
2023-01-29T00:16:49.050Z,49.58
2023-01-29T00:21:52.009Z,49.95
2023-01-29T00:26:56.554Z,49.79
2023-01-29T00:32:02.502Z,49.85
2023-01-29T00:37:09.023Z,49.73
2023-01-29T00:42:30.887Z,49.69
2023-01-29T00:52:57.699Z,50.55
2023-01-29T00:58:07.719Z,50.72
2023-01-29T01:08:48.669Z,50.63
2023-01-29T01:13:55.151Z,50.59
2023-01-29T01:19:03.529Z,51.28
2023-01-29T01:24:08.146Z,50.58
2023-01-29T01:29:12.652Z,51.23
2023-01-29T01:34:14.593Z,50.77
2023-01-29T01:39:25.278Z,51.49
2023-01-29T01:45:08.836Z,51.62
2023-01-29T01:50:44.092Z,52.02
2023-01-29T01:55:52.037Z,52.01
2023-01-29T02:05:35.291Z,52.08
2023-01-29T02:10:49.059Z,52.87
2023-01-29T02:15:54.505Z,52.99
2023-01-29T02:21:26.372Z,54.18
2023-01-29T02:26:54.820Z,53.62
2023-01-29T02:32:03.886Z,53.87
2023-01-29T02:37:15.084Z,54.10
2023-01-29T02:42:31.422Z,53.27
2023-01-29T02:48:12.389Z,54.26
2023-01-29T02:53:38.338Z,53.35
2023-01-29T02:59:13.670Z,53.89
2023-01-29T03:04:25.878Z,53.87
2023-01-29T03:09:41.690Z,54.41
2023-01-29T03:15:12.038Z,53.91
2023-01-29T03:20:32.122Z,54.23
2023-01-29T03:26:06.153Z,54.33
2023-01-29T03:31:36.236Z,53.89
2023-01-29T03:36:59.718Z,54.70
2023-01-29T03:42:47.972Z,54.32
2023-01-29T03:48:16.686Z,54.11
2023-01-29T03:53:58.484Z,52.67
2023-01-29T03:59:27.876Z,52.16
2023-01-29T04:04:59.229Z,51.82
2023-01-29T04:10:12.015Z,51.94
2023-01-29T04:15:22.231Z,51.72
2023-01-29T04:20:28.650Z,51.42
2023-01-29T04:25:53.932Z,52.01
2023-01-29T04:31:18.835Z,50.92
2023-01-29T04:36:36.079Z,51.45
2023-01-29T04:41:50.241Z,51.27
2023-01-29T04:47:13.518Z,51.46
2023-01-29T04:52:39.881Z,51.58
2023-01-29T04:57:55.381Z,51.71
2023-01-29T05:12:30.636Z,51.85
2023-01-29T05:32:14.261Z,51.70
2023-01-29T05:37:17.142Z,51.26
2023-01-29T05:42:20.140Z,51.09
2023-01-29T05:47:22.006Z,51.46
2023-01-29T05:52:23.855Z,51.49
2023-01-29T05:57:25.743Z,51.53
2023-01-29T06:02:32.365Z,50.94
2023-01-29T06:07:34.349Z,51.09
2023-01-29T06:12:37.585Z,51.51
2023-01-29T06:17:39.392Z,51.64
2023-01-29T06:22:41.487Z,51.09
2023-01-29T06:27:45.874Z,51.30
2023-01-29T06:32:47.679Z,51.33
2023-01-29T06:37:49.516Z,50.77
2023-01-29T06:42:51.379Z,51.13
2023-01-29T06:48:01.397Z,51.48
2023-01-29T06:53:03.497Z,51.13
2023-01-29T06:58:07.270Z,51.25
2023-01-29T07:03:10.641Z,50.83
2023-01-29T07:08:12.449Z,51.26
2023-01-29T07:13:14.534Z,51.69
2023-01-29T07:18:16.453Z,51.50
2023-01-29T07:23:18.694Z,51.42
2023-01-29T07:28:20.872Z,51.60
2023-01-29T07:33:22.677Z,51.29
2023-01-29T07:38:28.519Z,51.39
2023-01-29T07:43:31.309Z,51.97
2023-01-29T07:48:33.334Z,51.29
2023-01-29T07:53:38.174Z,50.89
2023-01-29T07:58:39.992Z,51.45
2023-01-29T08:03:41.877Z,51.45
2023-01-29T08:08:43.674Z,51.08
2023-01-29T08:13:46.738Z,48.90
2023-01-29T08:18:48.950Z,46.79
2023-01-29T08:23:51.284Z,47.58
2023-01-29T08:28:53.875Z,47.71
2023-01-29T08:33:55.725Z,48.23
2023-01-29T08:38:57.572Z,48.41
2023-01-29T08:44:06.139Z,48.45
2023-01-29T08:49:09.715Z,47.15
2023-01-29T08:54:11.545Z,46.78
2023-01-29T08:59:13.760Z,45.19
2023-01-29T09:04:15.797Z,44.20
2023-01-29T09:09:18.517Z,42.81
2023-01-29T09:14:20.686Z,42.97
2023-01-29T09:19:22.914Z,42.00
2023-01-29T09:24:24.816Z,42.20
2023-01-29T09:29:26.767Z,42.58
2023-01-29T09:34:28.589Z,42.18
2023-01-29T09:39:30.417Z,43.70
2023-01-29T09:44:53.107Z,42.45
2023-01-29T09:50:00.264Z,42.28
2023-01-29T09:55:27.560Z,42.81
2023-01-29T10:00:48.825Z,42.96
2023-01-29T10:06:23.139Z,44.12
2023-01-29T10:11:42.842Z,44.86
2023-01-29T10:17:14.753Z,44.07
2023-01-29T10:22:48.171Z,42.62
2023-01-29T10:27:59.684Z,42.49
2023-01-29T10:33:12.369Z,41.67
2023-01-29T10:38:35.567Z,41.87
2023-01-29T10:44:01.479Z,41.53
2023-01-29T10:49:07.188Z,41.97
2023-01-29T10:54:22.600Z,41.07
2023-01-29T10:59:37.075Z,38.75
2023-01-29T11:04:39.335Z,40.41
2023-01-29T11:09:54.909Z,37.42
2023-01-29T11:15:18.030Z,37.13
2023-01-29T11:20:28.165Z,38.11
2023-01-29T11:25:32.787Z,38.87
2023-01-29T11:30:38.676Z,38.21
2023-01-29T11:35:40.556Z,38.50
2023-01-29T11:40:47.930Z,37.13
2023-01-29T11:45:52.650Z,38.05
2023-01-29T11:51:00.639Z,38.39
2023-01-29T11:56:17.191Z,39.13
2023-01-29T12:01:31.176Z,38.08
2023-01-29T12:06:41.407Z,38.37
2023-01-29T12:11:43.491Z,39.48
2023-01-29T12:17:03.867Z,37.71
2023-01-29T12:22:44.447Z,36.79
2023-01-29T12:28:09.589Z,35.68
2023-01-29T12:33:36.893Z,35.54
2023-01-29T12:38:38.728Z,36.44
2023-01-29T12:43:48.061Z,35.42
2023-01-29T12:48:50.875Z,35.57
2023-01-29T12:54:22.066Z,33.77
2023-01-29T12:59:33.101Z,33.89
2023-01-29T13:04:47.160Z,33.58
2023-01-29T13:10:01.861Z,33.83
2023-01-29T13:15:35.935Z,34.80
2023-01-29T13:20:41.148Z,36.10
2023-01-29T13:25:43.672Z,36.79
2023-01-29T13:30:49.048Z,36.91
2023-01-29T13:35:59.400Z,37.13
2023-01-29T13:41:04.708Z,38.00
2023-01-29T13:46:17.850Z,38.59
2023-01-29T13:51:22.785Z,39.76
2023-01-29T13:56:33.767Z,39.43
2023-01-29T14:01:47.814Z,38.89
2023-01-29T14:07:04.537Z,39.40
2023-01-29T14:12:23.134Z,39.22
2023-01-29T14:17:27.002Z,39.55
2023-01-29T14:22:30.516Z,40.79
2023-01-29T14:27:33.841Z,40.96
2023-01-29T14:32:40.557Z,41.46
2023-01-29T14:37:47.447Z,42.67
2023-01-29T14:43:03.608Z,42.22
2023-01-29T14:48:24.248Z,41.83
2023-01-29T14:53:53.333Z,42.65
2023-01-29T14:59:02.954Z,42.90
2023-01-29T15:04:19.016Z,43.07
2023-01-29T15:09:36.635Z,42.93
2023-01-29T15:14:52.199Z,43.14
2023-01-29T15:19:55.056Z,43.21
2023-01-29T15:25:13.927Z,43.71
2023-01-29T15:30:20.303Z,44.39
2023-01-29T15:35:38.923Z,44.68
2023-01-29T15:40:58.070Z,44.86
2023-01-29T15:46:08.935Z,45.20
2023-01-29T15:51:19.787Z,45.81
2023-01-29T15:56:35.020Z,46.35
2023-01-29T16:01:37.055Z,46.00
2023-01-29T16:06:41.879Z,46.53
2023-01-29T16:11:44.428Z,46.39
2023-01-29T16:16:48.672Z,47.23
2023-01-29T16:22:04.146Z,46.94
2023-01-29T16:27:14.043Z,47.67
2023-01-29T16:32:16.457Z,46.44
2023-01-29T16:37:21.915Z,47.33
2023-01-29T16:42:35.879Z,47.80
2023-01-29T16:47:41.800Z,47.51
2023-01-29T16:53:11.825Z,48.53
2023-01-29T16:58:24.426Z,49.46
2023-01-29T17:03:28.579Z,49.33
2023-01-29T17:08:33.597Z,49.43
2023-01-29T17:13:40.006Z,49.64
2023-01-29T17:18:41.907Z,49.85
2023-01-29T17:23:44.021Z,49.50
2023-01-29T17:28:48.888Z,49.59
2023-01-29T17:33:53.626Z,50.17
2023-01-29T17:38:55.505Z,49.61
2023-01-29T17:43:57.412Z,49.89
2023-01-29T17:48:59.300Z,50.45
2023-01-29T17:54:01.192Z,50.51
2023-01-29T17:59:19.509Z,51.43
2023-01-29T18:04:21.453Z,50.21
2023-01-29T18:09:25.668Z,51.16
2023-01-29T18:14:27.589Z,50.72
2023-01-29T18:19:31.270Z,51.16
2023-01-29T18:24:58.623Z,51.37
2023-01-29T18:30:00.451Z,51.34
2023-01-29T18:35:03.257Z,51.57
2023-01-29T18:40:06.001Z,51.61
2023-01-29T18:45:08.666Z,51.63
2023-01-29T18:50:12.179Z,51.47
2023-01-29T18:55:14.215Z,51.55
2023-01-29T19:00:19.565Z,52.13
2023-01-29T19:05:23.788Z,52.61
2023-01-29T19:10:26.415Z,52.71
2023-01-29T19:15:28.414Z,53.17
2023-01-29T19:20:31.644Z,53.35
2023-01-29T19:25:37.025Z,53.78
2023-01-29T19:30:38.939Z,53.95
2023-01-29T19:35:45.269Z,54.25
2023-01-29T19:40:48.437Z,53.67
2023-01-29T19:45:58.289Z,53.80
2023-01-29T19:51:04.337Z,53.86
2023-01-29T19:56:08.675Z,53.33
2023-01-29T20:01:19.187Z,53.43
2023-01-29T20:06:25.148Z,53.78
2023-01-29T20:11:27.033Z,52.89
2023-01-29T20:16:29.100Z,52.56
2023-01-29T20:21:31.037Z,52.64
2023-01-29T20:26:33.434Z,51.41
2023-01-29T20:31:35.485Z,51.35
2023-01-29T20:36:37.454Z,50.73
2023-01-29T20:41:44.018Z,50.35
2023-01-29T20:46:46.402Z,49.87
2023-01-29T20:51:48.204Z,49.89
2023-01-29T20:56:50.078Z,50.53
2023-01-29T21:01:52.135Z,49.61
2023-01-29T21:06:54.038Z,49.69
2023-01-29T21:11:55.994Z,48.94
2023-01-29T21:16:57.897Z,48.45
2023-01-29T21:21:59.825Z,48.74
2023-01-29T21:27:03.264Z,48.06
2023-01-29T21:32:06.068Z,47.78
2023-01-29T21:37:09.379Z,48.20
2023-01-29T21:42:30.349Z,47.75
2023-01-29T21:47:35.777Z,47.64
2023-01-29T21:52:38.154Z,47.67
2023-01-29T21:57:40.257Z,48.51
2023-01-29T22:02:42.165Z,47.86
2023-01-29T22:07:44.442Z,48.05
2023-01-29T22:12:46.766Z,47.53
2023-01-29T22:17:49.111Z,47.64
2023-01-29T22:22:50.922Z,47.37
2023-01-29T22:27:52.825Z,48.08
2023-01-29T22:32:57.220Z,48.17
2023-01-29T22:37:59.850Z,48.06
2023-01-29T22:43:01.502Z,47.22
2023-01-29T22:48:03.449Z,48.04
2023-01-29T22:53:05.635Z,47.41
2023-01-29T22:58:07.442Z,47.42
2023-01-29T23:03:12.306Z,47.31
2023-01-29T23:08:14.776Z,48.02
2023-01-29T23:13:21.702Z,47.45
2023-01-29T23:18:23.862Z,47.27
2023-01-29T23:23:29.577Z,47.95
2023-01-29T23:28:32.867Z,47.38
2023-01-29T23:33:38.305Z,47.30
2023-01-29T23:38:41.458Z,47.40
2023-01-29T23:43:53.075Z,48.13
2023-01-29T23:48:54.873Z,47.92
2023-01-29T23:53:56.783Z,47.99
2023-01-29T23:58:59.114Z,47.70
